Etusivu
METAR-TAF:

METAR-TAF

Lentoasemat :

Ermelo, Etelä-Afrikka

Leveyspiiri: 26-29-44S, Pituuspiiri: 29-58-47E, korkeus merenpinnasta: 1737 m

Tämänhetkinen sää

Tämä raportti tehtiin 1 tunti ja 16 minuuttia sitten, kello 15.18 UTC
Tuuli 11 kn idästä/koillisesta
Lämpötila 18°C
Kosteus 77%
Ilmanpaine 1024 hPa

METAR: FAEO 141518Z AUTO 06011KT //// // ////// 18/14 Q1024

Aika: 18:34 (16:34 UTC)


TAF: puuttuu

Säähavainnot ja -ennusteet yli 4000 lentoasemalta (METAR- ja TAF-raportit).

Käytössä olevat sääasemat on merkitty karttaan keltaisilla ja punaisilla pisteillä.

Aseta hiiri pisteen päälle nähdäksesi sääaseman nimen.

Klikkaa sitten nähdäksesi säähavainnot ja -ennusteet.

Kartan vaihtaminen: klikkaa mustalla rastilla varustettuja vihreitä pisteitä, niin voit zoomata sisään; viivalla varustettua vihreää pistettä, niin voit zoomata ulos tai vihreitä nuolia, niin pääset viereisille kartoille.


METAR-TAF: